createdAt,value
2023-04-02T00:00:13.178Z,8.20
2023-04-02T00:01:13.569Z,7.90
2023-04-02T00:02:13.739Z,7.90
2023-04-02T00:03:14.017Z,8.20
2023-04-02T00:04:13.592Z,7.90
2023-04-02T00:05:13.893Z,8.30
2023-04-02T00:06:12.930Z,8.40
2023-04-02T00:07:12.825Z,8.00
2023-04-02T00:08:13.840Z,8.00
2023-04-02T00:09:13.728Z,7.80
2023-04-02T00:10:13.932Z,7.80
2023-04-02T00:11:12.900Z,8.00
2023-04-02T00:12:12.786Z,8.10
2023-04-02T00:13:13.675Z,8.00
2023-04-02T00:14:13.815Z,8.20
2023-04-02T00:15:13.720Z,8.10
2023-04-02T00:16:13.747Z,8.10
2023-04-02T00:17:13.817Z,8.00
2023-04-02T00:18:14.202Z,8.30
2023-04-02T00:19:13.193Z,8.10
2023-04-02T00:20:13.096Z,8.50
2023-04-02T00:21:13.211Z,8.40
2023-04-02T00:22:13.084Z,8.30
2023-04-02T00:23:13.208Z,7.80
2023-04-02T00:24:19.022Z,7.90
2023-04-02T00:25:13.140Z,8.00
2023-04-02T00:26:12.962Z,7.90
2023-04-02T00:27:13.177Z,7.80
2023-04-02T00:28:13.213Z,7.90
2023-04-02T00:29:13.104Z,7.90
2023-04-02T00:30:12.949Z,8.00
2023-04-02T00:31:13.132Z,7.90
2023-04-02T00:32:13.260Z,7.70
2023-04-02T00:33:13.254Z,7.80
2023-04-02T00:34:13.495Z,8.20
2023-04-02T00:35:13.534Z,7.90
2023-04-02T00:36:13.503Z,7.80
2023-04-02T00:37:13.593Z,7.50
2023-04-02T00:38:13.589Z,7.50
2023-04-02T00:39:13.660Z,7.40
2023-04-02T00:40:13.719Z,7.80
2023-04-02T00:41:13.651Z,7.60
2023-04-02T00:42:13.556Z,7.70
2023-04-02T00:43:13.491Z,7.90
2023-04-02T00:44:13.341Z,7.50
2023-04-02T00:45:13.681Z,7.50
2023-04-02T00:46:13.678Z,7.60
2023-04-02T00:47:13.736Z,7.80
2023-04-02T00:48:13.652Z,7.90
2023-04-02T00:49:13.510Z,7.80
2023-04-02T00:50:13.643Z,7.50
2023-04-02T00:51:13.604Z,7.40
2023-04-02T00:52:13.509Z,7.40
2023-04-02T00:53:13.351Z,7.70
2023-04-02T00:54:13.271Z,7.80
2023-04-02T00:55:13.284Z,7.50
2023-04-02T00:56:13.380Z,7.70
2023-04-02T00:57:13.262Z,7.90
2023-04-02T00:58:13.579Z,7.50
2023-04-02T00:59:13.765Z,7.20
2023-04-02T01:00:13.704Z,7.20
2023-04-02T01:01:13.645Z,7.30
2023-04-02T01:02:13.641Z,7.50
2023-04-02T01:03:13.648Z,7.30
2023-04-02T01:04:13.845Z,7.00
2023-04-02T01:05:13.086Z,7.10
2023-04-02T01:06:13.167Z,7.40
2023-04-02T01:07:13.718Z,7.40
2023-04-02T01:08:13.684Z,7.80
2023-04-02T01:09:13.610Z,7.30
2023-04-02T01:10:13.542Z,7.50
2023-04-02T01:11:13.476Z,7.20
2023-04-02T01:12:13.337Z,7.20
2023-04-02T01:13:13.231Z,7.00
2023-04-02T01:14:13.125Z,7.10
2023-04-02T01:15:12.982Z,7.20
2023-04-02T01:16:13.160Z,7.30
2023-04-02T01:17:13.293Z,7.40
2023-04-02T01:18:13.296Z,6.90
2023-04-02T01:19:13.198Z,6.80
2023-04-02T01:20:13.086Z,7.00
2023-04-02T01:21:13.048Z,7.20
2023-04-02T01:22:12.908Z,6.90
2023-04-02T01:23:12.926Z,7.20
2023-04-02T01:24:12.970Z,7.20
2023-04-02T01:25:12.908Z,7.30
2023-04-02T01:26:12.842Z,7.20
2023-04-02T01:27:13.768Z,6.70
2023-04-02T01:28:13.992Z,6.70
2023-04-02T01:29:12.877Z,6.90
2023-04-02T01:30:12.896Z,7.10
2023-04-02T01:31:13.187Z,6.90
2023-04-02T01:32:13.231Z,7.20
2023-04-02T01:33:13.282Z,7.00
2023-04-02T01:34:13.289Z,7.00
2023-04-02T01:35:13.197Z,7.00
2023-04-02T01:36:13.493Z,7.00
2023-04-02T01:37:13.528Z,6.70
2023-04-02T01:38:13.329Z,6.90
2023-04-02T01:39:13.646Z,6.80
2023-04-02T01:40:13.539Z,6.80
2023-04-02T01:41:13.747Z,6.70
2023-04-02T01:42:13.679Z,6.60
2023-04-02T01:43:13.946Z,7.10
2023-04-02T01:44:13.070Z,7.10
2023-04-02T01:45:12.993Z,6.90
2023-04-02T01:46:12.871Z,6.90
2023-04-02T01:47:13.925Z,7.10
2023-04-02T01:48:12.956Z,6.90
2023-04-02T01:49:12.864Z,6.70
2023-04-02T01:50:12.762Z,6.70
2023-04-02T01:51:13.648Z,6.90
2023-04-02T01:52:13.749Z,7.20
2023-04-02T01:53:13.616Z,6.60
2023-04-02T01:54:13.927Z,6.60
2023-04-02T01:55:13.202Z,6.50
2023-04-02T01:56:13.680Z,6.70
2023-04-02T01:57:13.829Z,6.80
2023-04-02T01:58:13.917Z,6.50
2023-04-02T01:59:12.976Z,6.60
2023-04-02T02:00:12.866Z,6.50
2023-04-02T02:01:12.807Z,6.60
2023-04-02T02:02:13.925Z,6.70
2023-04-02T02:03:12.883Z,7.00
2023-04-02T02:04:12.852Z,6.50
2023-04-02T02:05:14.189Z,6.70
2023-04-02T02:06:13.027Z,6.50
2023-04-02T02:07:13.092Z,6.70
2023-04-02T02:08:12.934Z,6.40
2023-04-02T02:09:12.806Z,6.50
2023-04-02T02:10:13.627Z,6.40
2023-04-02T02:11:13.610Z,6.60
2023-04-02T02:12:13.434Z,6.50
2023-04-02T02:13:13.227Z,6.60
2023-04-02T02:14:13.161Z,6.60
2023-04-02T02:15:13.150Z,6.60
2023-04-02T02:16:13.181Z,6.40
2023-04-02T02:17:13.107Z,6.50
2023-04-02T02:18:13.032Z,6.40
2023-04-02T02:19:12.936Z,6.30
2023-04-02T02:20:12.839Z,6.30
2023-04-02T02:21:13.789Z,6.30
2023-04-02T02:22:14.075Z,6.40
2023-04-02T02:23:12.969Z,6.20
2023-04-02T02:24:12.844Z,6.60
2023-04-02T02:25:13.720Z,6.80
2023-04-02T02:26:18.669Z,6.50
2023-04-02T02:27:13.627Z,6.30
2023-04-02T02:28:13.577Z,6.60
2023-04-02T02:29:13.470Z,6.80
2023-04-02T02:30:13.508Z,6.30
2023-04-02T02:31:13.433Z,6.60
2023-04-02T02:32:13.417Z,6.70
2023-04-02T02:33:13.598Z,6.20
2023-04-02T02:34:13.751Z,6.50
2023-04-02T02:35:13.562Z,6.60
2023-04-02T02:36:13.809Z,6.40
2023-04-02T02:37:13.928Z,6.20
2023-04-02T02:38:12.885Z,6.30
2023-04-02T02:39:12.936Z,6.40
2023-04-02T02:40:12.978Z,6.40
2023-04-02T02:41:13.278Z,6.40
2023-04-02T02:42:13.221Z,6.50
2023-04-02T02:43:13.208Z,6.50
2023-04-02T02:44:18.177Z,6.20
2023-04-02T02:45:13.090Z,6.20
2023-04-02T02:46:12.972Z,6.20
2023-04-02T02:47:13.062Z,6.20
2023-04-02T02:48:13.375Z,5.90
2023-04-02T02:49:13.344Z,6.00
2023-04-02T02:50:13.209Z,6.10
2023-04-02T02:51:15.157Z,6.00
2023-04-02T02:52:13.530Z,6.00
2023-04-02T02:53:13.614Z,6.10
2023-04-02T02:54:13.957Z,6.40
2023-04-02T02:55:12.965Z,6.20
2023-04-02T02:56:13.084Z,6.10
2023-04-02T02:57:13.380Z,6.50
2023-04-02T02:58:13.642Z,6.80
2023-04-02T02:59:13.886Z,6.30
2023-04-02T03:00:12.888Z,6.50
2023-04-02T03:01:13.049Z,6.70
2023-04-02T03:02:12.881Z,6.30
2023-04-02T03:03:13.162Z,6.20
2023-04-02T03:04:13.188Z,6.40
2023-04-02T03:05:13.198Z,6.60
2023-04-02T03:06:13.052Z,6.20
2023-04-02T03:07:12.914Z,6.30
2023-04-02T03:08:12.900Z,6.30
2023-04-02T03:09:13.042Z,6.20
2023-04-02T03:10:13.251Z,6.50
2023-04-02T03:11:13.212Z,6.60
2023-04-02T03:12:13.402Z,6.60
2023-04-02T03:13:13.430Z,6.20
2023-04-02T03:14:13.414Z,6.40
2023-04-02T03:15:13.420Z,6.50
2023-04-02T03:16:13.358Z,6.20
2023-04-02T03:17:13.257Z,6.30
2023-04-02T03:18:13.663Z,6.10
2023-04-02T03:19:13.925Z,6.10
2023-04-02T03:20:12.782Z,6.10
2023-04-02T03:21:13.867Z,6.30
2023-04-02T03:22:13.729Z,6.40
2023-04-02T03:23:14.001Z,6.30
2023-04-02T03:24:12.813Z,6.30
2023-04-02T03:25:14.016Z,6.40
2023-04-02T03:26:12.901Z,6.40
2023-04-02T03:27:12.965Z,6.30
2023-04-02T03:28:12.789Z,6.20
2023-04-02T03:29:13.648Z,6.30
2023-04-02T03:30:13.501Z,6.40
2023-04-02T03:31:13.508Z,6.10
2023-04-02T03:32:13.554Z,6.50
2023-04-02T03:33:13.372Z,6.20
2023-04-02T03:34:13.556Z,6.50
2023-04-02T03:35:13.462Z,6.20
2023-04-02T03:36:13.399Z,6.30
2023-04-02T03:37:13.343Z,6.00
2023-04-02T03:38:13.414Z,6.10
2023-04-02T03:39:13.262Z,6.30
2023-04-02T03:40:13.236Z,6.30
2023-04-02T03:41:13.378Z,6.20
2023-04-02T03:42:13.295Z,6.20
2023-04-02T03:43:13.278Z,6.30
2023-04-02T03:44:13.462Z,6.20
2023-04-02T03:45:13.614Z,6.30
2023-04-02T03:46:13.928Z,6.10
2023-04-02T03:47:13.291Z,6.00
2023-04-02T03:48:13.536Z,6.20
2023-04-02T03:49:13.741Z,6.10
2023-04-02T03:50:13.740Z,6.50
2023-04-02T03:51:14.079Z,6.10
2023-04-02T03:52:12.958Z,5.70
2023-04-02T03:53:13.166Z,6.30
2023-04-02T03:54:13.218Z,6.10
2023-04-02T03:55:13.391Z,5.90
2023-04-02T03:56:13.513Z,5.90
2023-04-02T03:57:13.833Z,5.90
2023-04-02T03:58:14.020Z,5.90
2023-04-02T03:59:12.961Z,6.00
2023-04-02T04:00:13.006Z,6.00
2023-04-02T04:01:13.294Z,5.90
2023-04-02T04:02:13.520Z,6.20
2023-04-02T04:03:13.852Z,6.10
2023-04-02T04:04:12.754Z,5.90
2023-04-02T04:05:13.705Z,6.10
2023-04-02T04:06:13.656Z,6.30
2023-04-02T04:07:13.698Z,6.30
2023-04-02T04:08:13.677Z,6.30
2023-04-02T04:09:13.991Z,6.50
2023-04-02T04:10:13.099Z,6.10
2023-04-02T04:11:13.084Z,5.70
2023-04-02T04:12:13.010Z,5.80
2023-04-02T04:13:12.916Z,5.90
2023-04-02T04:14:12.900Z,5.80
2023-04-02T04:15:12.698Z,6.00
2023-04-02T04:16:13.670Z,6.20
2023-04-02T04:17:13.848Z,6.30
2023-04-02T04:18:12.801Z,5.80
2023-04-02T04:19:13.683Z,6.00
2023-04-02T04:20:13.790Z,6.20
2023-04-02T04:21:13.640Z,5.60
2023-04-02T04:22:13.748Z,6.00
2023-04-02T04:23:13.652Z,5.90
2023-04-02T04:24:13.742Z,5.70
2023-04-02T04:25:13.647Z,5.90
2023-04-02T04:26:13.665Z,5.50
2023-04-02T04:27:13.602Z,5.80
2023-04-02T04:28:13.466Z,5.70
2023-04-02T04:29:13.444Z,5.50
2023-04-02T04:30:13.584Z,5.40
2023-04-02T04:31:13.620Z,5.80
2023-04-02T04:32:13.583Z,5.70
2023-04-02T04:33:13.683Z,5.50
2023-04-02T04:34:14.122Z,5.60
2023-04-02T04:35:13.165Z,5.80
2023-04-02T04:36:13.542Z,5.70
2023-04-02T04:37:13.591Z,5.90
2023-04-02T04:38:13.405Z,5.40
2023-04-02T04:39:13.746Z,5.70
2023-04-02T04:40:13.554Z,5.90
2023-04-02T04:41:13.619Z,5.80
2023-04-02T04:42:13.407Z,5.70
2023-04-02T04:43:13.381Z,5.90
2023-04-02T04:44:13.296Z,6.10
2023-04-02T04:45:13.392Z,5.80
2023-04-02T04:46:13.958Z,5.80
2023-04-02T04:47:13.307Z,5.50
2023-04-02T04:48:13.387Z,5.70
2023-04-02T04:49:13.565Z,5.70
2023-04-02T04:50:13.461Z,5.90
2023-04-02T04:51:13.459Z,5.90
2023-04-02T04:52:13.340Z,5.40
2023-04-02T04:53:13.243Z,5.60
2023-04-02T04:54:13.369Z,5.40
2023-04-02T04:55:15.404Z,5.60
2023-04-02T04:56:19.278Z,5.70
2023-04-02T04:57:14.197Z,5.80
2023-04-02T04:58:13.299Z,5.60
2023-04-02T04:59:13.329Z,5.70
2023-04-02T05:00:13.261Z,5.50
2023-04-02T05:01:13.148Z,5.30
2023-04-02T05:02:13.168Z,5.30
2023-04-02T05:03:14.206Z,5.40
2023-04-02T05:04:13.208Z,5.40
2023-04-02T05:05:13.148Z,5.70
2023-04-02T05:06:13.107Z,5.50
2023-04-02T05:07:13.195Z,5.60
2023-04-02T05:08:13.229Z,5.40
2023-04-02T05:09:13.546Z,5.80
2023-04-02T05:10:13.505Z,5.60
2023-04-02T05:11:13.757Z,5.90
2023-04-02T05:12:13.552Z,5.70
2023-04-02T05:13:13.871Z,5.90
2023-04-02T05:14:13.874Z,5.90
2023-04-02T05:15:13.824Z,5.40
2023-04-02T05:16:19.093Z,5.70
2023-04-02T05:17:13.370Z,5.50
2023-04-02T05:18:13.919Z,5.50
2023-04-02T05:19:18.264Z,5.60
2023-04-02T05:20:14.342Z,5.60
2023-04-02T05:21:13.828Z,5.50
2023-04-02T05:22:13.771Z,5.50
2023-04-02T05:23:14.285Z,5.50
2023-04-02T05:24:13.937Z,5.60
2023-04-02T05:25:12.974Z,5.70
2023-04-02T05:26:12.949Z,5.60
2023-04-02T05:27:12.864Z,5.40
2023-04-02T05:28:14.065Z,5.80
2023-04-02T05:29:18.231Z,5.40
2023-04-02T05:30:13.112Z,5.60
2023-04-02T05:31:13.199Z,5.50
2023-04-02T05:32:14.190Z,5.50
2023-04-02T05:33:13.247Z,5.40
2023-04-02T05:34:13.474Z,5.40
2023-04-02T05:35:13.613Z,5.20
2023-04-02T05:36:13.936Z,5.40
2023-04-02T05:37:13.007Z,5.40
2023-04-02T05:38:13.083Z,5.40
2023-04-02T05:39:13.361Z,5.40
2023-04-02T05:40:13.366Z,5.30
2023-04-02T05:41:13.265Z,5.50
2023-04-02T05:42:13.587Z,5.40
2023-04-02T05:43:13.494Z,5.40
2023-04-02T05:44:13.338Z,5.50
2023-04-02T05:45:13.470Z,5.80
2023-04-02T05:46:13.314Z,5.80
2023-04-02T05:47:13.270Z,5.80
2023-04-02T05:48:13.152Z,5.50
2023-04-02T05:49:13.055Z,5.40
2023-04-02T05:50:13.228Z,5.30
2023-04-02T05:51:13.127Z,5.10
2023-04-02T05:52:12.995Z,5.40
2023-04-02T05:53:12.890Z,5.70
2023-04-02T05:54:13.952Z,5.30
2023-04-02T05:55:13.136Z,5.10
2023-04-02T05:56:13.191Z,5.30
2023-04-02T05:57:13.157Z,5.40
2023-04-02T05:58:34.714Z,5.40
2023-04-02T05:59:13.443Z,5.30
2023-04-02T06:00:13.379Z,5.50
2023-04-02T06:01:13.445Z,5.50
2023-04-02T06:02:13.604Z,5.70
2023-04-02T06:03:13.898Z,5.50
2023-04-02T06:04:12.921Z,5.70
2023-04-02T06:05:12.865Z,5.70
2023-04-02T06:06:14.776Z,5.40
2023-04-02T06:07:13.852Z,5.20
2023-04-02T06:08:13.687Z,5.30
2023-04-02T06:09:14.016Z,5.40
2023-04-02T06:10:13.960Z,5.60
2023-04-02T06:11:12.814Z,5.50
2023-04-02T06:12:13.852Z,5.50
2023-04-02T06:13:13.764Z,5.00
2023-04-02T06:14:13.914Z,5.10
2023-04-02T06:15:12.848Z,5.20
2023-04-02T06:16:13.986Z,5.30
2023-04-02T06:17:13.067Z,5.10
2023-04-02T06:18:13.217Z,5.30
2023-04-02T06:19:13.463Z,4.90
2023-04-02T06:20:13.444Z,5.10
2023-04-02T06:21:13.380Z,4.90
2023-04-02T06:22:13.162Z,5.10
2023-04-02T06:23:13.112Z,5.00
2023-04-02T06:24:13.056Z,5.20
2023-04-02T06:25:12.947Z,5.10
2023-04-02T06:26:12.898Z,4.80
2023-04-02T06:27:12.911Z,4.80
2023-04-02T06:28:13.134Z,4.70
2023-04-02T06:29:18.076Z,5.10
2023-04-02T06:30:13.412Z,5.00
2023-04-02T06:31:13.536Z,4.90
2023-04-02T06:32:13.584Z,4.90
2023-04-02T06:33:13.509Z,5.60
2023-04-02T06:34:18.352Z,5.20
2023-04-02T06:35:13.423Z,5.10
2023-04-02T06:36:13.658Z,5.20
2023-04-02T06:37:13.780Z,5.00
2023-04-02T06:38:13.760Z,5.10
2023-04-02T06:39:13.565Z,5.20
2023-04-02T06:40:13.527Z,4.90
2023-04-02T06:41:13.663Z,4.80
2023-04-02T06:42:13.562Z,5.10
2023-04-02T06:43:13.382Z,4.80
2023-04-02T06:44:13.347Z,4.90
2023-04-02T06:45:13.379Z,5.00
2023-04-02T06:46:13.387Z,4.60
2023-04-02T06:47:13.539Z,5.00
2023-04-02T06:48:13.500Z,4.90
2023-04-02T06:49:13.934Z,5.00
2023-04-02T06:50:12.818Z,5.00
2023-04-02T06:51:13.731Z,5.20
2023-04-02T06:52:13.920Z,5.00
2023-04-02T06:53:13.070Z,5.10
2023-04-02T06:54:13.005Z,4.70
2023-04-02T06:55:12.995Z,5.10
2023-04-02T06:56:13.007Z,5.00
2023-04-02T06:57:13.036Z,4.70
2023-04-02T06:58:13.151Z,4.60
2023-04-02T06:59:13.016Z,4.80
2023-04-02T07:00:13.088Z,5.10
2023-04-02T07:01:13.363Z,5.10
2023-04-02T07:02:13.706Z,4.90
2023-04-02T07:03:13.632Z,5.00
2023-04-02T07:04:13.785Z,5.20
2023-04-02T07:05:13.984Z,5.00
2023-04-02T07:06:13.022Z,5.40
2023-04-02T07:07:13.585Z,5.40
2023-04-02T07:08:13.459Z,5.40
2023-04-02T07:09:13.264Z,5.10
2023-04-02T07:10:13.134Z,4.80
2023-04-02T07:11:13.411Z,4.80
2023-04-02T07:12:13.275Z,4.70
2023-04-02T07:13:13.369Z,4.90
2023-04-02T07:14:13.328Z,4.90
2023-04-02T07:16:13.415Z,5.10
2023-04-02T07:17:13.534Z,5.40
2023-04-02T07:18:13.495Z,5.20
2023-04-02T07:19:13.531Z,5.00
2023-04-02T07:20:14.044Z,5.30
2023-04-02T07:21:13.005Z,5.20
2023-04-02T07:22:13.022Z,5.10
2023-04-02T07:23:13.711Z,4.90
2023-04-02T07:24:14.035Z,4.70
2023-04-02T07:25:13.214Z,5.00
2023-04-02T07:26:13.402Z,5.10
2023-04-02T07:27:13.466Z,4.80
2023-04-02T07:28:13.369Z,5.00
2023-04-02T07:29:13.302Z,4.60
2023-04-02T07:30:13.259Z,4.70
2023-04-02T07:31:13.250Z,5.00
2023-04-02T07:32:13.197Z,5.00
2023-04-02T07:33:13.286Z,4.80
2023-04-02T07:34:13.346Z,4.90
2023-04-02T07:35:13.345Z,5.30
2023-04-02T07:36:13.294Z,5.30
2023-04-02T07:37:13.427Z,5.40
2023-04-02T07:38:13.446Z,5.00
2023-04-02T07:39:13.724Z,4.80
2023-04-02T07:40:13.788Z,5.00
2023-04-02T07:41:13.963Z,5.10
2023-04-02T07:42:12.917Z,4.90
2023-04-02T07:43:12.881Z,4.80
2023-04-02T07:44:12.839Z,4.70
2023-04-02T07:45:13.807Z,4.90
2023-04-02T07:46:13.825Z,5.40
2023-04-02T07:47:13.906Z,5.00
2023-04-02T07:48:13.184Z,5.00
2023-04-02T07:49:13.182Z,5.00
2023-04-02T07:50:13.044Z,5.10
2023-04-02T07:51:13.151Z,5.10
2023-04-02T07:52:13.197Z,4.90
2023-04-02T07:53:13.239Z,5.10
2023-04-02T07:54:13.521Z,5.00
2023-04-02T07:55:13.981Z,5.00
2023-04-02T07:56:12.975Z,5.00
2023-04-02T07:57:13.325Z,4.90
2023-04-02T07:58:13.378Z,5.30
2023-04-02T07:59:13.363Z,5.30
2023-04-02T08:00:13.171Z,5.20
2023-04-02T08:01:13.148Z,5.00
2023-04-02T08:02:13.209Z,5.00
2023-04-02T08:03:13.370Z,5.00
2023-04-02T08:04:13.463Z,5.30
2023-04-02T08:05:13.524Z,5.40
2023-04-02T08:06:13.818Z,5.50
2023-04-02T08:07:13.724Z,5.30
2023-04-02T08:08:14.654Z,5.30
2023-04-02T08:09:13.963Z,5.50
2023-04-02T08:10:13.020Z,5.30
2023-04-02T08:11:18.205Z,5.00
2023-04-02T08:12:13.046Z,5.30
2023-04-02T08:13:13.085Z,5.10
2023-04-02T08:14:13.149Z,4.90
2023-04-02T08:15:13.080Z,4.70
2023-04-02T08:16:13.031Z,5.00
2023-04-02T08:17:13.076Z,5.10
2023-04-02T08:18:13.165Z,5.10
2023-04-02T08:19:13.372Z,5.30
2023-04-02T08:20:13.631Z,4.80
2023-04-02T08:21:16.186Z,5.10
2023-04-02T08:22:13.607Z,5.10
2023-04-02T08:23:13.662Z,5.20
2023-04-02T08:24:14.775Z,4.70
2023-04-02T08:25:13.825Z,5.20
2023-04-02T08:26:13.781Z,5.10
2023-04-02T08:27:14.075Z,5.30
2023-04-02T08:28:13.220Z,5.20
2023-04-02T08:29:13.298Z,5.10
2023-04-02T08:30:13.776Z,5.30
2023-04-02T08:31:13.828Z,5.20
2023-04-02T08:32:13.751Z,4.90
2023-04-02T08:33:18.831Z,4.70
2023-04-02T08:34:13.612Z,4.90
2023-04-02T08:35:18.654Z,5.10
2023-04-02T08:36:13.883Z,5.20
2023-04-02T08:37:12.786Z,5.50
2023-04-02T08:38:13.713Z,5.20
2023-04-02T08:39:13.612Z,4.90
2023-04-02T08:40:13.562Z,5.40
2023-04-02T08:41:13.830Z,4.90
2023-04-02T08:42:13.829Z,5.20
2023-04-02T08:43:13.979Z,5.30
2023-04-02T08:44:13.501Z,5.30
2023-04-02T08:45:24.390Z,5.50
2023-04-02T08:46:13.296Z,5.70
2023-04-02T08:47:13.430Z,5.90
2023-04-02T08:48:13.349Z,6.00
2023-04-02T08:49:13.307Z,5.60
2023-04-02T08:50:13.573Z,5.50
2023-04-02T08:51:13.553Z,5.70
2023-04-02T08:52:13.486Z,5.50
2023-04-02T08:53:13.417Z,5.50
2023-04-02T08:54:13.442Z,5.50
2023-04-02T08:55:13.727Z,5.70
2023-04-02T08:56:13.866Z,5.60
2023-04-02T08:57:13.700Z,5.70
2023-04-02T08:58:13.565Z,5.30
2023-04-02T08:59:13.462Z,5.60
2023-04-02T09:00:13.479Z,5.70
2023-04-02T09:01:13.337Z,5.70
2023-04-02T09:02:13.536Z,5.90
2023-04-02T09:03:13.903Z,5.80
2023-04-02T09:04:13.450Z,5.40
2023-04-02T09:05:13.819Z,5.70
2023-04-02T09:06:14.765Z,6.00
2023-04-02T09:07:13.714Z,5.60
2023-04-02T09:08:13.838Z,6.30
2023-04-02T09:09:14.036Z,6.00
2023-04-02T09:10:13.278Z,5.70
2023-04-02T09:11:13.347Z,5.40
2023-04-02T09:12:13.824Z,5.40
2023-04-02T09:13:13.760Z,5.20
2023-04-02T09:14:18.687Z,5.40
2023-04-02T09:15:13.657Z,5.30
2023-04-02T09:16:14.039Z,5.60
2023-04-02T09:17:12.984Z,5.40
2023-04-02T09:18:18.218Z,5.40
2023-04-02T09:19:13.121Z,5.20
2023-04-02T09:20:13.137Z,5.40
2023-04-02T09:21:13.229Z,5.70
2023-04-02T09:22:13.198Z,5.60
2023-04-02T09:23:13.230Z,5.60
2023-04-02T09:24:13.048Z,5.70
2023-04-02T09:25:13.328Z,5.60
2023-04-02T09:26:13.601Z,5.60
2023-04-02T09:27:13.704Z,5.50
2023-04-02T09:28:13.550Z,5.80
2023-04-02T09:29:13.491Z,5.60
2023-04-02T09:30:13.354Z,5.90
2023-04-02T09:31:14.195Z,5.50
2023-04-02T09:32:13.064Z,5.80
2023-04-02T09:33:13.175Z,5.90
2023-04-02T09:34:13.088Z,6.00
2023-04-02T09:35:24.525Z,6.00
2023-04-02T09:36:14.470Z,5.50
2023-04-02T09:37:12.980Z,5.70
2023-04-02T09:38:17.976Z,5.50
2023-04-02T09:39:12.889Z,5.50
2023-04-02T09:40:12.871Z,5.70
2023-04-02T09:41:14.099Z,5.60
2023-04-02T09:42:13.107Z,5.90
2023-04-02T09:43:13.040Z,5.90
2023-04-02T09:44:13.007Z,5.80
2023-04-02T09:45:13.350Z,6.30
2023-04-02T09:46:13.760Z,6.50
2023-04-02T09:47:13.928Z,6.10
2023-04-02T09:48:13.266Z,6.20
2023-04-02T09:49:13.465Z,5.90
2023-04-02T09:50:13.364Z,6.00
2023-04-02T09:51:13.786Z,6.10
2023-04-02T09:52:13.810Z,5.80
2023-04-02T09:53:13.846Z,6.00
2023-04-02T09:54:13.854Z,5.90
2023-04-02T09:55:14.101Z,5.70
2023-04-02T09:56:17.981Z,5.80
2023-04-02T09:57:13.070Z,5.80
2023-04-02T09:58:13.312Z,5.50
2023-04-02T09:59:13.635Z,5.60
2023-04-02T10:00:29.895Z,5.90
2023-04-02T10:01:13.224Z,5.50
2023-04-02T10:02:13.133Z,5.60
2023-04-02T10:03:12.981Z,5.70
2023-04-02T10:04:12.857Z,6.00
2023-04-02T10:05:13.185Z,5.70
2023-04-02T10:06:13.885Z,5.50
2023-04-02T10:07:12.921Z,5.60
2023-04-02T10:08:12.953Z,5.60
2023-04-02T10:09:12.896Z,6.20
2023-04-02T10:10:12.841Z,6.10
2023-04-02T10:11:13.874Z,5.90
2023-04-02T10:12:13.810Z,6.20
2023-04-02T10:13:14.269Z,6.00
2023-04-02T10:14:13.410Z,6.20
2023-04-02T10:15:13.855Z,5.70
2023-04-02T10:16:13.936Z,5.80
2023-04-02T10:17:14.081Z,5.80
2023-04-02T10:18:13.413Z,5.90
2023-04-02T10:19:13.363Z,6.20
2023-04-02T10:20:13.531Z,5.60
2023-04-02T10:21:13.505Z,5.70
2023-04-02T10:22:13.578Z,5.80
2023-04-02T10:23:13.438Z,5.80
2023-04-02T10:24:13.673Z,5.90
2023-04-02T10:25:13.593Z,6.10
2023-04-02T10:26:13.491Z,5.90
2023-04-02T10:27:13.405Z,6.10
2023-04-02T10:28:13.308Z,6.30
2023-04-02T10:29:13.348Z,6.00
2023-04-02T10:30:13.372Z,6.20
2023-04-02T10:31:13.424Z,6.00
2023-04-02T10:32:13.862Z,6.00
2023-04-02T10:33:13.938Z,6.00
2023-04-02T10:34:12.869Z,5.90
2023-04-02T10:35:13.840Z,6.20
2023-04-02T10:36:14.106Z,6.50
2023-04-02T10:37:14.498Z,6.10
2023-04-02T10:38:13.707Z,6.00
2023-04-02T10:39:14.095Z,6.20
2023-04-02T10:40:13.093Z,6.40
2023-04-02T10:41:13.293Z,6.70
2023-04-02T10:42:13.463Z,7.00
2023-04-02T10:43:13.452Z,6.20
2023-04-02T10:44:20.155Z,6.00
2023-04-02T10:45:13.769Z,6.20
2023-04-02T10:46:14.078Z,6.50
2023-04-02T10:47:13.209Z,6.00
2023-04-02T10:48:13.215Z,5.80
2023-04-02T10:49:13.104Z,5.70
2023-04-02T10:50:13.061Z,5.70
2023-04-02T10:51:13.025Z,6.30
2023-04-02T10:52:13.056Z,6.10
2023-04-02T10:53:13.333Z,6.10
2023-04-02T10:54:13.610Z,6.30
2023-04-02T10:55:13.823Z,6.60
2023-04-02T10:56:14.177Z,6.40
2023-04-02T10:57:13.230Z,6.40
2023-04-02T10:58:13.206Z,6.00
2023-04-02T10:59:13.364Z,6.40
2023-04-02T11:00:13.193Z,6.70
2023-04-02T11:01:13.147Z,6.50
2023-04-02T11:02:13.121Z,6.60
2023-04-02T11:03:18.540Z,6.40
2023-04-02T11:04:14.307Z,6.70
2023-04-02T11:05:13.460Z,6.80
2023-04-02T11:06:13.760Z,6.80
2023-04-02T11:07:15.015Z,6.20
2023-04-02T11:08:13.464Z,6.40
2023-04-02T11:09:13.622Z,6.60
2023-04-02T11:10:13.500Z,6.30
2023-04-02T11:11:13.656Z,6.30
2023-04-02T11:12:13.606Z,6.30
2023-04-02T11:13:13.435Z,6.00
2023-04-02T11:14:13.702Z,6.20
2023-04-02T11:15:13.826Z,5.90
2023-04-02T11:16:14.263Z,5.80
2023-04-02T11:17:13.401Z,6.00
2023-04-02T11:18:13.704Z,6.70
2023-04-02T11:19:13.938Z,6.40
2023-04-02T11:20:12.722Z,6.10
2023-04-02T11:21:13.630Z,6.40
2023-04-02T11:22:13.538Z,6.70
2023-04-02T11:23:13.529Z,6.70
2023-04-02T11:24:13.678Z,6.60
2023-04-02T11:25:13.529Z,6.60
2023-04-02T11:26:13.695Z,6.60
2023-04-02T11:27:14.009Z,6.90
2023-04-02T11:28:13.204Z,6.30
2023-04-02T11:29:13.577Z,6.70
2023-04-02T11:30:13.413Z,6.10
2023-04-02T11:31:13.725Z,6.10
2023-04-02T11:32:13.882Z,6.00
2023-04-02T11:33:14.434Z,6.50
2023-04-02T11:34:13.744Z,6.20
2023-04-02T11:35:13.604Z,6.40
2023-04-02T11:36:13.938Z,6.40
2023-04-02T11:37:12.834Z,6.40
2023-04-02T11:38:14.074Z,6.40
2023-04-02T11:39:17.457Z,6.70
2023-04-02T11:40:14.164Z,6.50
2023-04-02T11:41:13.332Z,6.80
2023-04-02T11:42:13.334Z,7.10
2023-04-02T11:43:13.148Z,7.10
2023-04-02T11:44:13.101Z,7.10
2023-04-02T11:45:13.248Z,6.40
2023-04-02T11:46:13.644Z,6.10
2023-04-02T11:47:13.698Z,6.50
2023-04-02T11:48:14.104Z,6.90
2023-04-02T11:49:13.431Z,6.70
2023-04-02T11:50:13.593Z,6.60
2023-04-02T11:51:13.902Z,6.70
2023-04-02T11:52:13.031Z,6.60
2023-04-02T11:53:13.046Z,7.40
2023-04-02T11:54:12.970Z,7.20
2023-04-02T11:55:12.956Z,6.60
2023-04-02T11:56:12.889Z,6.40
2023-04-02T11:57:13.320Z,6.50
2023-04-02T11:58:13.497Z,6.40
2023-04-02T11:59:13.328Z,6.70
2023-04-02T12:00:13.416Z,6.60
2023-04-02T12:01:13.409Z,6.90
2023-04-02T12:02:13.241Z,6.70
2023-04-02T12:03:13.216Z,6.70
2023-04-02T12:04:13.314Z,6.30
2023-04-02T12:05:13.342Z,6.60
2023-04-02T12:06:13.216Z,6.70
2023-04-02T12:07:13.207Z,6.70
2023-04-02T12:08:13.395Z,6.30
2023-04-02T12:09:13.259Z,6.30
2023-04-02T12:10:13.569Z,6.90
2023-04-02T12:11:13.517Z,7.00
2023-04-02T12:12:13.443Z,6.50
2023-04-02T12:13:13.300Z,6.30
2023-04-02T12:14:13.182Z,6.50
2023-04-02T12:15:13.089Z,6.70
2023-04-02T12:17:13.411Z,6.90
2023-04-02T12:18:13.512Z,6.90
2023-04-02T12:19:13.416Z,6.90
2023-04-02T12:20:13.421Z,7.20
2023-04-02T12:21:13.445Z,7.00
2023-04-02T12:22:13.300Z,6.80
2023-04-02T12:23:13.397Z,7.00
2023-04-02T12:24:13.600Z,7.00
2023-04-02T12:25:13.645Z,7.00
2023-04-02T12:26:13.621Z,7.30
2023-04-02T12:27:13.447Z,7.20
2023-04-02T12:28:13.362Z,7.00
2023-04-02T12:29:13.230Z,7.10
2023-04-02T12:30:13.405Z,7.40
2023-04-02T12:31:13.583Z,7.50
2023-04-02T12:32:13.655Z,7.90
2023-04-02T12:33:13.498Z,7.60
2023-04-02T12:34:13.352Z,7.50
2023-04-02T12:35:13.374Z,7.10
2023-04-02T12:36:13.407Z,7.40
2023-04-02T12:37:13.286Z,7.40
2023-04-02T12:38:13.288Z,7.40
2023-04-02T12:39:13.166Z,7.30
2023-04-02T12:40:13.208Z,7.30
2023-04-02T12:41:13.161Z,7.50
2023-04-02T12:42:13.033Z,7.90
2023-04-02T12:43:13.317Z,7.90
2023-04-02T12:44:13.190Z,8.10
2023-04-02T12:45:13.387Z,7.40
2023-04-02T12:46:13.628Z,8.30
2023-04-02T12:47:13.912Z,8.60
2023-04-02T12:48:12.852Z,8.80
2023-04-02T12:49:13.712Z,8.30
2023-04-02T12:50:13.681Z,7.70
2023-04-02T12:51:13.831Z,7.80
2023-04-02T12:52:13.952Z,7.80
2023-04-02T12:53:12.999Z,7.50
2023-04-02T12:54:13.216Z,7.50
2023-04-02T12:55:13.313Z,7.30
2023-04-02T12:56:13.399Z,7.60
2023-04-02T12:57:13.989Z,7.60
2023-04-02T12:58:12.885Z,7.50
2023-04-02T12:59:12.762Z,7.10
2023-04-02T13:00:13.693Z,7.60
2023-04-02T13:01:13.741Z,7.70
2023-04-02T13:02:13.755Z,7.70
2023-04-02T13:03:14.452Z,7.80
2023-04-02T13:04:13.910Z,7.80
2023-04-02T13:05:13.291Z,7.60
2023-04-02T13:06:13.105Z,7.90
2023-04-02T13:07:13.117Z,8.20
2023-04-02T13:08:13.233Z,8.60
2023-04-02T13:09:13.149Z,7.90
2023-04-02T13:10:13.536Z,7.90
2023-04-02T13:11:13.543Z,7.70
2023-04-02T13:12:13.439Z,8.10
2023-04-02T13:13:13.335Z,8.20
2023-04-02T13:14:13.256Z,8.30
2023-04-02T13:15:13.262Z,7.80
2023-04-02T13:16:13.255Z,7.70
2023-04-02T13:17:13.344Z,8.60
2023-04-02T13:18:13.456Z,8.30
2023-04-02T13:19:13.525Z,7.70
2023-04-02T13:20:13.435Z,8.00